Time;durP1;ratioP1;P1;durP2;ratioP2;P2;SDS_P1;SDS_P2;PMS_P1;PMS_P2;Temp;Humidity;BMP_temperature;BMP_pressure;BME280_temperature;BME280_humidity;BME280_pressure;Samples;Min_cycle;Max_cycle;Signal;HPM_P1;HPM_P2
2023/06/11 00:01:26;;;;;;;8.07;6.30;;;;;;;;;;4955178;29;20219;-72
2023/06/11 00:04:34;;;;;;;6.90;6.20;;;;;;;;;;4966486;28;20176;-72
2023/06/11 00:07:39;;;;;;;10.23;7.00;;;;;;;;;;4955913;29;20180;-72
2023/06/11 00:10:43;;;;;;;6.97;6.27;;;;;;;;;;4955085;29;20188;-71
2023/06/11 00:13:48;;;;;;;7.63;6.70;;;;;;;;;;4955432;29;20183;-71
2023/06/11 00:16:52;;;;;;;9.30;6.57;;;;;;;;;;4956029;29;20172;-72
2023/06/11 00:19:56;;;;;;;7.27;6.33;;;;;;;;;;4955992;29;20184;-72
2023/06/11 00:23:00;;;;;;;8.53;6.33;;;;;;;;;;4955167;29;20183;-72
2023/06/11 00:26:06;;;;;;;7.53;6.53;;;;;;;;;;4944363;29;20520;-72
2023/06/11 00:29:10;;;;;;;7.63;6.83;;;;;;;;;;4955802;29;20183;-72
2023/06/11 00:32:15;;;;;;;8.10;7.00;;;;;;;;;;4954758;29;20223;-72
2023/06/11 00:35:19;;;;;;;9.33;7.20;;;;;;;;;;4955501;29;20211;-73
2023/06/11 00:38:23;;;;;;;7.93;6.60;;;;;;;;;;4955080;29;20199;-72
2023/06/11 00:41:30;;;;;;;8.77;6.90;;;;;;;;;;4954838;29;20702;-74
2023/06/11 00:44:36;;;;;;;8.50;6.33;;;;;;;;;;4955033;29;20180;-72
2023/06/11 00:47:40;;;;;;;8.23;6.30;;;;;;;;;;4943632;29;20187;-72
2023/06/11 00:50:48;;;;;;;9.50;7.30;;;;;;;;;;4943741;29;20188;-72
2023/06/11 00:53:53;;;;;;;8.93;7.00;;;;;;;;;;4966103;28;20176;-71
2023/06/11 00:56:57;;;;;;;7.57;6.33;;;;;;;;;;4965495;28;20207;-71
2023/06/11 01:00:03;;;;;;;9.07;7.50;;;;;;;;;;4955429;29;20184;-72
2023/06/11 01:03:12;;;;;;;8.57;6.60;;;;;;;;;;4965925;28;20187;-71
2023/06/11 01:06:21;;;;;;;7.57;6.87;;;;;;;;;;4965748;28;20180;-71
2023/06/11 01:09:26;;;;;;;7.87;7.17;;;;;;;;;;4954295;28;20195;-72
2023/06/11 01:12:31;;;;;;;8.67;7.73;;;;;;;;;;4954514;29;20224;-71
2023/06/11 01:15:36;;;;;;;8.10;7.30;;;;;;;;;;4965704;28;20203;-71
2023/06/11 01:19:20;;;;;;;8.10;7.13;;;;;;;;;;4965387;28;20184;-72
2023/06/11 01:22:49;;;;;;;9.13;8.23;;;;;;;;;;4954082;29;20219;-71
2023/06/11 01:26:13;;;;;;;8.70;7.80;;;;;;;;;;4965340;28;20183;-72
2023/06/11 01:29:20;;;;;;;9.87;7.50;;;;;;;;;;4954513;29;20512;-72
2023/06/11 01:32:25;;;;;;;7.80;7.00;;;;;;;;;;4954220;29;20219;-72
2023/06/11 01:35:33;;;;;;;7.00;6.30;;;;;;;;;;4965247;28;20208;-72
2023/06/11 01:38:44;;;;;;;8.27;7.57;;;;;;;;;;4965418;28;20192;-72
2023/06/11 01:42:05;;;;;;;8.20;7.40;;;;;;;;;;4965069;28;20703;-71
2023/06/11 01:45:10;;;;;;;8.43;7.37;;;;;;;;;;4954027;29;20180;-71
2023/06/11 01:48:14;;;;;;;8.43;7.30;;;;;;;;;;4966221;28;20188;-72
2023/06/11 01:51:21;;;;;;;9.03;8.17;;;;;;;;;;4957688;29;20223;-72
2023/06/11 01:54:26;;;;;;;11.87;6.90;;;;;;;;;;4958702;29;20184;-72
2023/06/11 01:57:32;;;;;;;8.50;7.70;;;;;;;;;;4958079;29;20210;-72
2023/06/11 02:00:36;;;;;;;8.97;8.07;;;;;;;;;;4968486;28;20176;-72
2023/06/11 02:03:40;;;;;;;10.43;7.87;;;;;;;;;;4957238;29;20647;-72
2023/06/11 02:06:44;;;;;;;8.93;7.60;;;;;;;;;;4958203;29;20571;-73
2023/06/11 02:09:49;;;;;;;9.07;8.17;;;;;;;;;;4957069;29;20662;-73
2023/06/11 02:12:53;;;;;;;10.00;7.53;;;;;;;;;;4957600;29;20211;-73
2023/06/11 02:15:58;;;;;;;9.37;8.47;;;;;;;;;;4968070;28;20211;-73
2023/06/11 02:19:02;;;;;;;9.50;8.27;;;;;;;;;;4968203;28;20180;-73
2023/06/11 02:22:06;;;;;;;8.77;7.97;;;;;;;;;;4958244;29;20223;-73
2023/06/11 02:25:12;;;;;;;10.43;8.43;;;;;;;;;;4967932;28;20176;-73
2023/06/11 02:28:17;;;;;;;8.37;7.57;;;;;;;;;;4957073;29;20186;-72
2023/06/11 02:31:21;;;;;;;10.50;8.57;;;;;;;;;;4956966;29;20219;-72
2023/06/11 02:34:25;;;;;;;11.57;8.33;;;;;;;;;;4957661;29;20186;-73
2023/06/11 02:37:29;;;;;;;9.93;8.10;;;;;;;;;;4957420;29;20180;-72
2023/06/11 02:40:33;;;;;;;8.13;7.23;;;;;;;;;;4956604;29;20183;-72
2023/06/11 02:43:37;;;;;;;8.80;7.37;;;;;;;;;;4957578;29;20658;-73
2023/06/11 02:46:42;;;;;;;7.43;6.67;;;;;;;;;;4967740;28;20238;-73
2023/06/11 02:49:46;;;;;;;10.47;7.23;;;;;;;;;;4957244;29;20183;-73
2023/06/11 02:52:50;;;;;;;11.63;7.23;;;;;;;;;;4967664;28;20211;-72
2023/06/11 02:55:54;;;;;;;8.20;7.40;;;;;;;;;;4956300;29;20250;-73
2023/06/11 02:58:59;;;;;;;8.97;8.07;;;;;;;;;;4967544;28;20179;-73
2023/06/11 03:02:03;;;;;;;9.67;8.40;;;;;;;;;;4956642;29;20556;-72
2023/06/11 03:05:07;;;;;;;9.33;8.13;;;;;;;;;;4967400;28;20199;-73
2023/06/11 03:08:11;;;;;;;10.73;7.80;;;;;;;;;;4967421;28;20184;-73
2023/06/11 03:11:16;;;;;;;8.60;7.70;;;;;;;;;;4956244;29;20222;-73
2023/06/11 03:14:25;;;;;;;8.03;7.10;;;;;;;;;;4967479;28;20184;-72
2023/06/11 03:17:29;;;;;;;7.90;7.20;;;;;;;;;;4956193;29;20187;-72
2023/06/11 03:20:33;;;;;;;8.87;7.77;;;;;;;;;;4945178;29;20179;-72
2023/06/11 03:23:38;;;;;;;14.20;8.50;;;;;;;;;;4956054;29;20175;-72
2023/06/11 03:26:42;;;;;;;9.80;7.73;;;;;;;;;;4945235;29;20651;-72
2023/06/11 03:29:47;;;;;;;8.53;7.67;;;;;;;;;;4967565;28;20517;-72
2023/06/11 03:32:51;;;;;;;10.43;8.07;;;;;;;;;;4955505;29;20698;-72
2023/06/11 03:35:55;;;;;;;9.07;7.90;;;;;;;;;;4966587;28;20218;-73
2023/06/11 03:39:03;;;;;;;10.43;8.70;;;;;;;;;;4955752;29;20200;-72
2023/06/11 03:42:07;;;;;;;8.50;7.70;;;;;;;;;;4966575;28;20232;-73
2023/06/11 03:45:12;;;;;;;9.97;7.97;;;;;;;;;;4955647;29;20184;-73
2023/06/11 03:48:16;;;;;;;10.00;8.57;;;;;;;;;;4955357;29;20183;-73
2023/06/11 03:51:21;;;;;;;9.27;8.27;;;;;;;;;;4966592;28;20231;-73
2023/06/11 03:54:25;;;;;;;9.00;8.10;;;;;;;;;;4955484;29;20183;-73
2023/06/11 03:57:29;;;;;;;8.70;7.80;;;;;;;;;;4955081;29;20230;-73
2023/06/11 04:00:34;;;;;;;12.17;8.40;;;;;;;;;;4955540;29;20184;-72
2023/06/11 04:03:39;;;;;;;10.07;7.70;;;;;;;;;;4955293;29;20192;-71
2023/06/11 04:06:44;;;;;;;8.73;7.83;;;;;;;;;;4955443;29;20186;-72
2023/06/11 04:09:50;;;;;;;9.13;8.23;;;;;;;;;;4944313;29;20191;-72
2023/06/11 04:12:55;;;;;;;8.87;7.50;;;;;;;;;;4944112;29;20219;-72
2023/06/11 04:16:00;;;;;;;8.50;7.07;;;;;;;;;;4944071;29;20219;-72
2023/06/11 04:19:04;;;;;;;8.77;7.63;;;;;;;;;;4965967;28;20183;-72
2023/06/11 04:22:09;;;;;;;9.13;8.00;;;;;;;;;;4954921;29;20219;-72
2023/06/11 04:25:13;;;;;;;9.37;8.23;;;;;;;;;;4954822;29;20180;-72
2023/06/11 04:28:18;;;;;;;11.10;8.00;;;;;;;;;;4955020;29;20183;-73
2023/06/11 04:31:26;;;;;;;9.57;8.27;;;;;;;;;;4955884;29;20231;-73
2023/06/11 04:34:30;;;;;;;8.80;7.93;;;;;;;;;;4965728;28;20180;-73
2023/06/11 04:37:40;;;;;;;8.80;7.77;;;;;;;;;;4954692;29;20231;-73
2023/06/11 04:40:52;;;;;;;8.40;7.60;;;;;;;;;;4965826;28;20223;-72
2023/06/11 04:44:00;;;;;;;11.13;7.67;;;;;;;;;;4954941;29;20203;-72
2023/06/11 04:47:08;;;;;;;9.80;8.90;;;;;;;;;;4965977;28;20171;-72
2023/06/11 04:50:20;;;;;;;10.03;9.00;;;;;;;;;;4954899;29;20179;-72
2023/06/11 04:53:27;;;;;;;9.13;7.90;;;;;;;;;;4954772;29;20693;-72
2023/06/11 04:56:32;;;;;;;8.50;7.80;;;;;;;;;;4965526;28;20235;-73
2023/06/11 04:59:37;;;;;;;13.27;9.33;;;;;;;;;;4965449;28;20184;-73
2023/06/11 05:02:44;;;;;;;12.07;9.97;;;;;;;;;;4965617;28;20729;-73
2023/06/11 05:05:51;;;;;;;10.30;9.00;;;;;;;;;;4943751;29;20190;-73
2023/06/11 05:08:58;;;;;;;9.80;8.80;;;;;;;;;;4965701;28;20184;-73
2023/06/11 05:12:03;;;;;;;9.40;7.93;;;;;;;;;;4964281;28;20245;-72
2023/06/11 05:15:09;;;;;;;8.87;7.60;;;;;;;;;;4953450;29;20199;-72
2023/06/11 05:18:14;;;;;;;11.83;7.40;;;;;;;;;;4953531;29;20172;-72
2023/06/11 05:21:18;;;;;;;7.27;6.57;;;;;;;;;;4953620;29;20228;-72
2023/06/11 05:24:28;;;;;;;9.27;6.77;;;;;;;;;;4957666;28;20199;-73
2023/06/11 05:27:33;;;;;;;7.97;7.17;;;;;;;;;;4958210;29;20175;-72
2023/06/11 05:30:43;;;;;;;8.23;6.67;;;;;;;;;;4958078;29;20183;-73
2023/06/11 05:33:48;;;;;;;6.90;6.17;;;;;;;;;;4958042;29;20199;-73
2023/06/11 05:36:52;;;;;;;7.90;6.47;;;;;;;;;;4968724;28;20223;-73
2023/06/11 05:39:56;;;;;;;7.53;6.40;;;;;;;;;;4947118;29;20187;-73
2023/06/11 05:43:01;;;;;;;6.83;6.13;;;;;;;;;;4958236;29;20254;-73
2023/06/11 05:46:06;;;;;;;7.37;6.47;;;;;;;;;;4958135;29;20179;-73
2023/06/11 05:49:10;;;;;;;6.77;5.33;;;;;;;;;;4946699;29;20556;-73
2023/06/11 05:52:14;;;;;;;6.70;5.70;;;;;;;;;;4958549;29;20211;-73
2023/06/11 05:55:19;;;;;;;7.37;5.73;;;;;;;;;;4957263;29;20195;-73
2023/06/11 05:58:23;;;;;;;6.20;5.60;;;;;;;;;;4957602;29;20195;-74
2023/06/11 06:01:28;;;;;;;6.63;6.03;;;;;;;;;;5199767;23;20210;-85
2023/06/11 06:04:32;;;;;;;6.40;5.63;;;;;;;;;;4899013;29;20229;-84
2023/06/11 06:07:37;;;;;;;6.53;5.93;;;;;;;;;;4932654;29;20201;-85
2023/06/11 06:10:41;;;;;;;6.00;5.50;;;;;;;;;;4921644;29;20200;-84
2023/06/11 06:13:45;;;;;;;10.30;6.47;;;;;;;;;;4902657;29;20190;-86
2023/06/11 06:16:51;;;;;;;6.50;5.80;;;;;;;;;;4902151;29;20221;-86
2023/06/11 06:20:02;;;;;;;7.23;6.37;;;;;;;;;;4902226;29;20190;-86
2023/06/11 06:23:06;;;;;;;7.57;5.60;;;;;;;;;;4902422;29;20677;-86
2023/06/11 06:26:13;;;;;;;7.13;5.70;;;;;;;;;;4911825;29;20190;-86
2023/06/11 06:29:17;;;;;;;6.37;5.43;;;;;;;;;;4890968;29;20189;-86
2023/06/11 06:32:21;;;;;;;7.50;5.17;;;;;;;;;;4900798;29;20221;-86
2023/06/11 06:35:26;;;;;;;7.33;5.40;;;;;;;;;;4900815;29;20190;-86
2023/06/11 06:38:31;;;;;;;8.50;5.97;;;;;;;;;;4900879;29;20173;-86
2023/06/11 06:41:35;;;;;;;6.27;5.23;;;;;;;;;;4901344;29;20641;-86
2023/06/11 06:44:46;;;;;;;7.67;5.43;;;;;;;;;;4892103;29;20190;-85
2023/06/11 06:47:52;;;;;;;6.17;5.40;;;;;;;;;;4900542;29;20205;-86
2023/06/11 06:50:55;;;;;;;9.77;5.77;;;;;;;;;;4890084;29;20185;-86
2023/06/11 06:54:00;;;;;;;7.60;5.20;;;;;;;;;;4890716;29;20182;-86
2023/06/11 06:57:07;;;;;;;8.73;5.23;;;;;;;;;;4911532;29;20209;-86
2023/06/11 07:00:12;;;;;;;6.83;5.57;;;;;;;;;;4889798;29;20185;-86
2023/06/11 07:03:16;;;;;;;5.73;5.07;;;;;;;;;;4900700;29;20582;-86
2023/06/11 07:06:21;;;;;;;8.80;4.77;;;;;;;;;;4914062;29;20197;-84
2023/06/11 07:09:25;;;;;;;7.80;4.80;;;;;;;;;;4912693;29;20644;-84
2023/06/11 07:12:29;;;;;;;5.87;5.27;;;;;;;;;;4891284;29;20217;-84
2023/06/11 07:15:34;;;;;;;6.10;4.53;;;;;;;;;;4891135;29;20178;-84
2023/06/11 07:18:38;;;;;;;5.40;4.50;;;;;;;;;;4890631;29;20190;-85
2023/06/11 07:21:43;;;;;;;4.67;4.10;;;;;;;;;;4901469;29;20224;-84
2023/06/11 07:24:48;;;;;;;8.13;4.67;;;;;;;;;;4912577;29;20190;-84
2023/06/11 07:27:53;;;;;;;4.73;4.07;;;;;;;;;;4891487;29;20194;-84
2023/06/11 07:30:57;;;;;;;4.53;4.03;;;;;;;;;;4902113;29;20190;-84
2023/06/11 07:34:04;;;;;;;7.07;4.50;;;;;;;;;;4891663;29;20206;-84
2023/06/11 07:37:08;;;;;;;5.10;4.30;;;;;;;;;;4913586;29;20226;-85
2023/06/11 07:40:14;;;;;;;5.80;3.67;;;;;;;;;;4902487;29;20189;-85
2023/06/11 07:43:18;;;;;;;3.80;3.43;;;;;;;;;;4911227;29;20548;-88
2023/06/11 07:46:22;;;;;;;4.90;3.40;;;;;;;;;;4898997;29;20183;-89
2023/06/11 07:49:26;;;;;;;12.73;3.60;;;;;;;;;;4888356;29;20185;-88
2023/06/11 07:52:33;;;;;;;5.53;3.40;;;;;;;;;;4909840;29;20224;-87
2023/06/11 07:55:58;;;;;;;4.17;2.80;;;;;;;;;;4889320;29;20186;-87
2023/06/11 07:59:05;;;;;;;4.00;3.30;;;;;;;;;;4898930;29;20189;-87
2023/06/11 08:02:10;;;;;;;5.23;3.10;;;;;;;;;;4887881;29;20229;-87
2023/06/11 08:05:17;;;;;;;5.33;3.17;;;;;;;;;;4898651;29;20524;-87
2023/06/11 08:08:21;;;;;;;3.13;2.50;;;;;;;;;;4898743;29;20188;-88
2023/06/11 08:11:26;;;;;;;3.05;2.40;;;;;;;;;;4909770;29;20187;-87
2023/06/11 08:14:33;;;;;;;8.57;3.55;;;;;;;;;;4909537;29;20202;-87
2023/06/11 08:17:38;;;;;;;5.25;2.80;;;;;;;;;;4909074;29;20224;-87
2023/06/11 08:20:42;;;;;;;3.35;2.50;;;;;;;;;;4909315;29;20191;-88
2023/06/11 08:23:46;;;;;;;4.78;2.67;;;;;;;;;;4909260;29;20191;-88
2023/06/11 08:26:51;;;;;;;4.72;2.50;;;;;;;;;;4898469;29;20532;-88
2023/06/11 08:29:55;;;;;;;3.05;2.30;;;;;;;;;;4898157;29;20185;-87
2023/06/11 08:32:59;;;;;;;4.38;2.40;;;;;;;;;;4898122;29;20226;-88
2023/06/11 08:36:03;;;;;;;2.47;2.05;;;;;;;;;;4898103;29;20190;-88
2023/06/11 08:39:07;;;;;;;3.58;2.13;;;;;;;;;;4898151;29;20184;-87
2023/06/11 08:42:11;;;;;;;4.53;2.28;;;;;;;;;;4898204;29;20704;-87
2023/06/11 08:45:15;;;;;;;2.80;2.60;;;;;;;;;;4897930;29;20189;-87
2023/06/11 08:48:21;;;;;;;3.97;2.35;;;;;;;;;;4887315;29;20184;-88
2023/06/11 08:51:28;;;;;;;3.42;2.05;;;;;;;;;;4908831;29;20187;-87
2023/06/11 08:54:32;;;;;;;3.47;2.50;;;;;;;;;;4898128;29;20187;-87
2023/06/11 08:57:37;;;;;;;5.38;2.60;;;;;;;;;;4897402;29;20215;-87
2023/06/11 09:00:41;;;;;;;4.57;2.50;;;;;;;;;;4887278;29;20196;-86
2023/06/11 09:03:48;;;;;;;3.80;2.80;;;;;;;;;;4897381;29;20213;-87
2023/06/11 09:06:57;;;;;;;4.30;2.53;;;;;;;;;;4891614;29;20197;-87
2023/06/11 09:10:09;;;;;;;6.15;3.38;;;;;;;;;;4894864;29;20194;-87
2023/06/11 09:13:13;;;;;;;8.13;3.00;;;;;;;;;;4896477;29;20232;-87
2023/06/11 09:16:18;;;;;;;3.13;2.83;;;;;;;;;;4887164;29;20639;-87
2023/06/11 09:19:22;;;;;;;3.35;3.05;;;;;;;;;;4908379;29;20178;-86
2023/06/11 09:22:26;;;;;;;3.65;2.70;;;;;;;;;;4887149;29;20224;-88
2023/06/11 09:25:31;;;;;;;12.27;3.63;;;;;;;;;;4897908;29;20203;-87
2023/06/11 09:28:35;;;;;;;4.28;2.85;;;;;;;;;;4887024;29;20552;-87
2023/06/11 09:31:40;;;;;;;4.20;2.90;;;;;;;;;;4908502;29;20702;-86
2023/06/11 09:34:45;;;;;;;2.85;2.35;;;;;;;;;;4887419;29;20189;-87
2023/06/11 09:37:51;;;;;;;4.65;2.95;;;;;;;;;;4886954;29;20557;-85
2023/06/11 09:40:56;;;;;;;3.72;2.85;;;;;;;;;;4886547;29;20564;-87
2023/06/11 09:44:01;;;;;;;4.05;3.20;;;;;;;;;;4897649;29;20193;-86
2023/06/11 09:47:06;;;;;;;4.63;3.08;;;;;;;;;;4887664;29;20191;-90
2023/06/11 09:50:12;;;;;;;3.92;2.83;;;;;;;;;;4886654;29;20196;-86
2023/06/11 09:53:21;;;;;;;3.85;2.75;;;;;;;;;;4886318;29;20232;-86
2023/06/11 09:56:25;;;;;;;3.55;3.00;;;;;;;;;;4886747;29;20675;-87
2023/06/11 09:59:32;;;;;;;3.60;2.85;;;;;;;;;;4898114;29;20182;-85
2023/06/11 10:02:42;;;;;;;4.03;2.88;;;;;;;;;;4899294;29;20242;-86
2023/06/11 10:05:46;;;;;;;3.03;2.63;;;;;;;;;;4888152;29;20186;-86
2023/06/11 10:08:52;;;;;;;3.85;2.90;;;;;;;;;;4887787;29;20205;-85
2023/06/11 10:11:56;;;;;;;7.10;2.53;;;;;;;;;;4890284;29;20224;-86
2023/06/11 10:15:03;;;;;;;2.65;2.45;;;;;;;;;;4901226;29;20190;-86
2023/06/11 10:18:14;;;;;;;5.25;2.80;;;;;;;;;;4890790;29;20210;-86
2023/06/11 10:21:18;;;;;;;3.85;2.63;;;;;;;;;;4890384;29;20202;-86
2023/06/11 10:24:27;;;;;;;3.33;2.83;;;;;;;;;;4900731;29;20669;-86
2023/06/11 10:27:36;;;;;;;4.65;2.58;;;;;;;;;;4901390;29;20186;-87
2023/06/11 10:30:51;;;;;;;4.78;2.53;;;;;;;;;;4901459;29;20186;-87
2023/06/11 10:34:03;;;;;;;6.55;2.83;;;;;;;;;;4890425;29;20202;-87
2023/06/11 10:37:08;;;;;;;4.07;2.75;;;;;;;;;;4901412;29;20182;-87
2023/06/11 10:40:13;;;;;;;2.95;2.60;;;;;;;;;;4901370;29;20201;-88
2023/06/11 10:43:20;;;;;;;7.82;2.80;;;;;;;;;;4900706;29;20233;-87
2023/06/11 10:46:24;;;;;;;2.85;2.63;;;;;;;;;;4901323;29;20182;-87
2023/06/11 10:49:29;;;;;;;3.38;3.08;;;;;;;;;;4890127;29;20186;-87
2023/06/11 10:52:47;;;;;;;3.10;2.80;;;;;;;;;;4890132;29;20225;-87
2023/06/11 10:55:52;;;;;;;5.75;2.80;;;;;;;;;;4911380;29;20564;-87
2023/06/11 10:58:56;;;;;;;3.28;3.00;;;;;;;;;;4890130;29;20226;-87
2023/06/11 11:02:00;;;;;;;4.45;3.15;;;;;;;;;;4900633;29;20229;-88
2023/06/11 11:05:08;;;;;;;3.50;3.20;;;;;;;;;;4890523;29;20511;-87
2023/06/11 11:08:12;;;;;;;3.40;3.10;;;;;;;;;;4901029;29;20182;-87
2023/06/11 11:11:16;;;;;;;2.95;2.70;;;;;;;;;;4889958;29;20205;-87
2023/06/11 11:14:21;;;;;;;3.67;2.70;;;;;;;;;;4889917;29;20182;-87
2023/06/11 11:17:26;;;;;;;5.03;2.72;;;;;;;;;;4900460;29;20181;-87
2023/06/11 11:20:32;;;;;;;4.10;3.00;;;;;;;;;;4900115;29;20185;-87
2023/06/11 11:23:36;;;;;;;3.20;2.90;;;;;;;;;;4889746;29;20221;-87
2023/06/11 11:26:45;;;;;;;4.18;3.28;;;;;;;;;;4900525;29;20186;-87
2023/06/11 11:29:50;;;;;;;3.05;2.63;;;;;;;;;;4889843;29;20193;-87
2023/06/11 11:32:55;;;;;;;3.45;2.72;;;;;;;;;;4910850;29;20222;-86
2023/06/11 11:36:02;;;;;;;3.40;2.92;;;;;;;;;;4889072;29;20186;-89
2023/06/11 11:39:11;;;;;;;3.00;2.80;;;;;;;;;;4899573;29;20206;-86
2023/06/11 11:42:15;;;;;;;3.40;2.67;;;;;;;;;;4889755;29;20229;-86
2023/06/11 11:45:22;;;;;;;7.55;2.70;;;;;;;;;;4890501;29;20186;-86
2023/06/11 11:48:26;;;;;;;4.38;2.75;;;;;;;;;;4889632;29;20676;-85
2023/06/11 11:51:30;;;;;;;4.03;3.28;;;;;;;;;;4913773;29;20189;-85
2023/06/11 11:54:35;;;;;;;4.80;3.50;;;;;;;;;;4900253;29;20182;-86
2023/06/11 11:57:40;;;;;;;6.43;3.33;;;;;;;;;;4900475;29;20204;-86
2023/06/11 12:00:51;;;;;;;5.07;3.20;;;;;;;;;;4889207;29;20237;-86
2023/06/11 12:04:03;;;;;;;4.43;3.17;;;;;;;;;;4889841;29;20186;-86
2023/06/11 12:07:12;;;;;;;5.03;2.50;;;;;;;;;;4899872;29;20190;-86
2023/06/11 12:10:16;;;;;;;3.53;3.10;;;;;;;;;;4890142;29;20174;-86
2023/06/11 12:13:20;;;;;;;4.25;3.10;;;;;;;;;;4889215;29;20225;-86
2023/06/11 12:16:24;;;;;;;4.15;3.20;;;;;;;;;;4890038;29;20205;-86
2023/06/11 12:19:29;;;;;;;3.47;3.00;;;;;;;;;;4889615;29;20217;-86
2023/06/11 12:22:34;;;;;;;4.72;3.33;;;;;;;;;;4899416;29;20236;-86
2023/06/11 12:25:39;;;;;;;6.22;3.30;;;;;;;;;;4910098;29;20200;-87
2023/06/11 12:28:42;;;;;;;4.68;2.90;;;;;;;;;;4888960;29;20187;-85
2023/06/11 12:31:46;;;;;;;2.85;2.65;;;;;;;;;;4899461;29;20561;-86
2023/06/11 12:34:51;;;;;;;3.88;2.45;;;;;;;;;;4889313;29;20208;-86
2023/06/11 12:37:56;;;;;;;3.28;2.92;;;;;;;;;;4899232;29;20537;-85
2023/06/11 12:41:00;;;;;;;3.25;2.95;;;;;;;;;;4898578;29;20182;-86
2023/06/11 12:44:04;;;;;;;4.47;2.88;;;;;;;;;;4909223;29;20201;-85
2023/06/11 12:47:09;;;;;;;3.67;2.85;;;;;;;;;;4906395;29;20414;-86
2023/06/11 12:50:13;;;;;;;2.90;2.47;;;;;;;;;;4927617;29;20185;-85
2023/06/11 12:53:18;;;;;;;3.72;2.38;;;;;;;;;;4927820;29;20221;-85
2023/06/11 12:56:25;;;;;;;3.00;2.70;;;;;;;;;;4906088;29;20185;-85
2023/06/11 12:59:30;;;;;;;3.20;2.72;;;;;;;;;;4916694;29;20561;-85
2023/06/11 13:02:36;;;;;;;3.90;2.60;;;;;;;;;;4927706;29;20232;-85
2023/06/11 13:05:40;;;;;;;2.95;2.65;;;;;;;;;;4905695;29;20181;-85
2023/06/11 13:08:44;;;;;;;3.58;2.83;;;;;;;;;;4916526;29;20177;-83
2023/06/11 13:11:49;;;;;;;4.28;2.63;;;;;;;;;;4918092;29;20217;-85
2023/06/11 13:14:53;;;;;;;2.72;2.50;;;;;;;;;;4930246;29;20507;-85
2023/06/11 13:17:58;;;;;;;2.78;2.50;;;;;;;;;;4937801;23;20594;-86
2023/06/11 13:21:02;;;;;;;4.22;2.42;;;;;;;;;;4935757;29;20192;-87
2023/06/11 13:24:06;;;;;;;3.65;2.67;;;;;;;;;;4924886;29;20180;-87
2023/06/11 13:27:10;;;;;;;2.80;2.60;;;;;;;;;;4924911;29;20180;-86
2023/06/11 13:30:15;;;;;;;3.00;2.70;;;;;;;;;;4913994;29;20184;-87
2023/06/11 13:33:20;;;;;;;3.05;2.83;;;;;;;;;;4913633;29;20185;-87
2023/06/11 13:36:24;;;;;;;3.90;3.10;;;;;;;;;;4913607;29;20521;-87
2023/06/11 13:39:28;;;;;;;3.17;2.88;;;;;;;;;;4924539;29;20675;-86
2023/06/11 13:42:32;;;;;;;3.17;2.90;;;;;;;;;;4924751;29;20203;-86
2023/06/11 13:45:36;;;;;;;4.50;2.78;;;;;;;;;;4927506;29;20185;-86
2023/06/11 13:48:40;;;;;;;2.97;2.60;;;;;;;;;;4917209;29;20216;-86
2023/06/11 13:51:45;;;;;;;5.78;3.03;;;;;;;;;;4950121;29;20189;-86
2023/06/11 13:54:49;;;;;;;2.75;2.55;;;;;;;;;;4938830;29;20200;-86
2023/06/11 13:57:53;;;;;;;3.50;2.95;;;;;;;;;;4938712;29;20220;-86
2023/06/11 14:00:57;;;;;;;2.65;2.45;;;;;;;;;;4917155;29;20184;-86
2023/06/11 14:04:01;;;;;;;3.22;2.90;;;;;;;;;;4927583;29;20667;-86
2023/06/11 14:07:06;;;;;;;3.70;2.72;;;;;;;;;;4916830;29;20204;-86
2023/06/11 14:10:10;;;;;;;4.40;2.65;;;;;;;;;;4916780;29;20663;-86
2023/06/11 14:13:14;;;;;;;3.38;2.40;;;;;;;;;;4938324;29;20205;-86
2023/06/11 14:16:18;;;;;;;3.25;2.95;;;;;;;;;;4938258;29;20204;-86
2023/06/11 14:19:22;;;;;;;2.60;2.40;;;;;;;;;;4926856;29;20236;-89
2023/06/11 14:22:26;;;;;;;3.20;2.90;;;;;;;;;;4927732;29;20627;-85
2023/06/11 14:25:30;;;;;;;2.80;2.60;;;;;;;;;;4927848;29;20185;-84
2023/06/11 14:28:34;;;;;;;2.75;2.42;;;;;;;;;;4939890;29;20223;-85
2023/06/11 14:31:38;;;;;;;3.80;2.90;;;;;;;;;;4941183;29;20180;-85
2023/06/11 14:34:42;;;;;;;2.85;2.55;;;;;;;;;;4939547;29;20188;-85
2023/06/11 14:37:46;;;;;;;3.25;2.28;;;;;;;;;;4927043;29;20220;-85
2023/06/11 14:40:50;;;;;;;5.25;2.45;;;;;;;;;;4927011;29;20232;-85
2023/06/11 14:43:55;;;;;;;2.45;2.25;;;;;;;;;;4938341;29;20189;-87
2023/06/11 14:46:59;;;;;;;2.78;2.42;;;;;;;;;;4927551;29;20180;-87
2023/06/11 14:50:04;;;;;;;3.65;2.55;;;;;;;;;;4927763;29;20177;-82
2023/06/11 14:53:11;;;;;;;4.70;2.70;;;;;;;;;;4939760;29;20181;-82
2023/06/11 14:56:19;;;;;;;4.38;2.60;;;;;;;;;;4927213;29;20184;-82
2023/06/11 14:59:50;;;;;;;4.30;2.55;;;;;;;;;;4939032;29;20207;-83
2023/06/11 15:03:16;;;;;;;4.32;2.85;;;;;;;;;;4917638;29;20180;-83
2023/06/11 15:06:21;;;;;;;3.03;2.78;;;;;;;;;;4928533;29;20181;-82
2023/06/11 15:09:27;;;;;;;2.83;2.47;;;;;;;;;;4928759;29;20705;-82
2023/06/11 15:12:36;;;;;;;4.88;2.80;;;;;;;;;;4928834;29;20184;-84
2023/06/11 15:15:41;;;;;;;4.57;2.80;;;;;;;;;;4917135;29;20642;-83
2023/06/11 15:19:06;;;;;;;10.68;2.80;;;;;;;;;;4938104;29;20707;-82
2023/06/11 15:22:12;;;;;;;4.63;3.22;;;;;;;;;;4929423;29;20192;-82
2023/06/11 15:25:19;;;;;;;4.45;3.10;;;;;;;;;;4916417;29;20189;-82
2023/06/11 15:28:37;;;;;;;5.28;2.67;;;;;;;;;;4927846;29;20231;-82
2023/06/11 15:37:35;;;;;;;4.95;3.20;;;;;;;;;;4937251;29;20216;-82
2023/06/11 15:40:53;;;;;;;3.50;2.17;;;;;;;;;;4908057;29;20211;-82
2023/06/11 15:44:01;;;;;;;4.10;2.75;;;;;;;;;;4907753;29;20182;-82
2023/06/11 15:47:08;;;;;;;3.40;2.60;;;;;;;;;;4907594;29;20519;-82
2023/06/11 15:50:17;;;;;;;3.25;2.45;;;;;;;;;;4918550;29;20192;-82
2023/06/11 15:53:21;;;;;;;4.88;2.90;;;;;;;;;;4908726;29;20184;-83
2023/06/11 15:56:27;;;;;;;3.17;2.60;;;;;;;;;;4908964;29;20195;-83
2023/06/11 16:00:03;;;;;;;5.82;2.53;;;;;;;;;;4919130;29;20216;-82
2023/06/11 16:03:14;;;;;;;3.90;2.65;;;;;;;;;;4907577;29;20185;-86
2023/06/11 16:06:28;;;;;;;3.05;2.72;;;;;;;;;;4908679;29;20183;-82
2023/06/11 16:09:37;;;;;;;3.45;2.50;;;;;;;;;;4916987;29;20182;-86
2023/06/11 16:12:42;;;;;;;2.72;2.50;;;;;;;;;;4906309;29;20176;-86
2023/06/11 16:15:47;;;;;;;3.83;2.50;;;;;;;;;;4908107;29;20184;-82
2023/06/11 16:18:53;;;;;;;3.58;2.60;;;;;;;;;;4908962;29;20241;-82
2023/06/11 16:21:57;;;;;;;8.07;3.10;;;;;;;;;;4925457;29;20178;-82
2023/06/11 16:25:02;;;;;;;5.55;2.63;;;;;;;;;;4925353;29;20202;-84
2023/06/11 16:28:07;;;;;;;3.53;2.38;;;;;;;;;;4935939;29;20225;-82
2023/06/11 16:31:11;;;;;;;3.60;2.80;;;;;;;;;;4924789;29;20200;-83
2023/06/11 16:34:15;;;;;;;3.17;2.60;;;;;;;;;;4936658;29;20643;-84
2023/06/11 16:37:20;;;;;;;3.25;2.75;;;;;;;;;;4936804;29;20192;-84
2023/06/11 16:40:24;;;;;;;4.10;2.72;;;;;;;;;;4914359;29;20216;-84
2023/06/11 16:43:28;;;;;;;2.70;2.50;;;;;;;;;;4937346;29;20184;-84
2023/06/11 16:46:32;;;;;;;3.05;2.70;;;;;;;;;;4915541;29;20199;-84
2023/06/11 16:49:36;;;;;;;3.85;2.85;;;;;;;;;;4925957;29;20184;-83
2023/06/11 16:52:41;;;;;;;5.53;2.70;;;;;;;;;;4926387;29;20187;-83
2023/06/11 16:55:45;;;;;;;3.15;2.53;;;;;;;;;;4925792;29;20202;-83
2023/06/11 16:58:54;;;;;;;3.23;2.93;;;;;;;;;;4937055;29;20714;-84
2023/06/11 17:01:58;;;;;;;2.60;2.40;;;;;;;;;;4936950;29;20179;-84
2023/06/11 17:05:02;;;;;;;4.13;2.97;;;;;;;;;;4925958;29;20195;-83
2023/06/11 17:08:06;;;;;;;3.13;2.60;;;;;;;;;;4937964;29;20217;-84
2023/06/11 17:11:11;;;;;;;4.20;2.80;;;;;;;;;;4936636;29;20538;-84
2023/06/11 17:14:14;;;;;;;4.07;2.80;;;;;;;;;;4937866;29;20536;-84
2023/06/11 17:17:19;;;;;;;5.25;2.72;;;;;;;;;;4936661;29;20200;-84
2023/06/11 17:20:24;;;;;;;3.15;2.85;;;;;;;;;;4928572;29;20217;-84
2023/06/11 17:23:27;;;;;;;4.30;2.93;;;;;;;;;;4940095;29;20183;-83
2023/06/11 17:26:33;;;;;;;4.22;2.53;;;;;;;;;;4929499;29;20547;-83
2023/06/11 17:29:36;;;;;;;3.90;2.80;;;;;;;;;;4929532;29;20526;-83
2023/06/11 17:32:41;;;;;;;2.87;2.53;;;;;;;;;;4918545;29;20184;-83
2023/06/11 17:35:45;;;;;;;4.57;2.80;;;;;;;;;;4940367;29;20191;-83
2023/06/11 17:38:49;;;;;;;3.23;2.90;;;;;;;;;;4940982;29;20226;-84
2023/06/11 17:41:54;;;;;;;3.37;2.47;;;;;;;;;;4940404;29;20180;-84
2023/06/11 17:44:58;;;;;;;6.23;2.60;;;;;;;;;;4918932;29;20206;-83
2023/06/11 17:48:02;;;;;;;5.57;3.07;;;;;;;;;;4940959;29;20570;-83
2023/06/11 17:51:06;;;;;;;5.60;2.60;;;;;;;;;;4940256;29;20176;-83
2023/06/11 17:54:11;;;;;;;7.20;2.80;;;;;;;;;;4929402;29;20184;-84
2023/06/11 17:57:15;;;;;;;4.33;2.87;;;;;;;;;;4940957;29;20184;-84
2023/06/11 18:00:19;;;;;;;4.17;2.80;;;;;;;;;;4918312;29;20214;-83
2023/06/11 18:03:24;;;;;;;4.83;3.20;;;;;;;;;;4918443;29;20189;-84
2023/06/11 18:06:28;;;;;;;7.43;3.07;;;;;;;;;;4939938;29;20192;-84
2023/06/11 18:09:32;;;;;;;2.93;2.63;;;;;;;;;;4940256;29;20180;-84
2023/06/11 18:12:37;;;;;;;3.43;2.90;;;;;;;;;;4933790;29;20202;-84
2023/06/11 18:15:41;;;;;;;5.63;2.80;;;;;;;;;;4929801;29;20189;-84
2023/06/11 18:18:46;;;;;;;5.20;3.23;;;;;;;;;;4928210;29;20226;-84
2023/06/11 18:21:50;;;;;;;6.00;2.87;;;;;;;;;;4939526;29;20210;-83
2023/06/11 18:24:55;;;;;;;5.57;2.77;;;;;;;;;;4928784;29;20525;-83
2023/06/11 18:27:58;;;;;;;4.03;3.40;;;;;;;;;;4940586;29;20217;-84
2023/06/11 18:31:02;;;;;;;6.27;3.30;;;;;;;;;;4928971;29;20180;-84
2023/06/11 18:34:06;;;;;;;5.03;3.23;;;;;;;;;;4919940;29;20181;-84
2023/06/11 18:37:11;;;;;;;3.13;2.83;;;;;;;;;;4933598;29;20180;-84
2023/06/11 18:40:15;;;;;;;4.47;2.90;;;;;;;;;;4944096;29;20211;-84